createdAt,value
2018-06-02T00:02:31.102Z,16.42
2018-06-02T00:07:36.154Z,16.36
2018-06-02T00:12:47.479Z,16.36
2018-06-02T00:17:52.921Z,16.32
2018-06-02T00:23:01.531Z,16.30
2018-06-02T00:28:06.731Z,16.32
2018-06-02T00:33:13.254Z,16.37
2018-06-02T00:38:18.454Z,16.42
2018-06-02T00:43:23.643Z,16.36
2018-06-02T00:48:29.002Z,16.53
2018-06-02T00:53:37.749Z,16.57
2018-06-02T00:58:43.192Z,16.43
2018-06-02T01:03:58.562Z,16.43
2018-06-02T01:09:03.390Z,16.47
2018-06-02T01:14:12.169Z,16.42
2018-06-02T01:19:17.621Z,16.43
2018-06-02T01:24:38.736Z,16.40
2018-06-02T01:29:44.040Z,16.36
2018-06-02T01:34:55.433Z,16.30
2018-06-02T01:40:00.860Z,16.29
2018-06-02T01:45:09.738Z,16.30
2018-06-02T01:50:15.054Z,16.30
2018-06-02T01:55:23.973Z,16.24
2018-06-02T02:00:29.329Z,16.21
2018-06-02T02:05:38.021Z,16.21
2018-06-02T02:10:43.307Z,16.26
2018-06-02T02:15:52.117Z,16.25
2018-06-02T02:20:57.677Z,16.32
2018-06-02T02:26:04.275Z,16.19
2018-06-02T02:31:09.644Z,16.23
2018-06-02T02:36:22.027Z,16.28
2018-06-02T02:41:27.402Z,16.26
2018-06-02T02:46:38.444Z,16.25
2018-06-02T02:51:44.045Z,16.19
2018-06-02T02:56:49.408Z,16.15
2018-06-02T03:01:57.828Z,16.15
2018-06-02T03:07:03.295Z,16.21
2018-06-02T03:12:09.879Z,16.28
2018-06-02T03:17:15.150Z,16.31
2018-06-02T03:22:23.591Z,16.62
2018-06-02T03:27:28.748Z,16.71
2018-06-02T03:32:39.204Z,17.19
2018-06-02T03:37:44.431Z,16.76
2018-06-02T03:42:50.021Z,17.05
2018-06-02T03:47:55.400Z,17.10
2018-06-02T03:53:07.795Z,18.98
2018-06-02T03:58:13.257Z,23.00
2018-06-02T04:03:21.747Z,19.78
2018-06-02T04:08:27.184Z,18.72
2018-06-02T04:13:37.792Z,18.89
2018-06-02T04:18:43.184Z,18.83
2018-06-02T04:24:00.741Z,19.26
2018-06-02T04:29:06.050Z,19.32
2018-06-02T04:34:11.412Z,19.57
2018-06-02T04:39:16.897Z,19.61
2018-06-02T04:44:23.179Z,19.65
2018-06-02T04:49:28.744Z,19.73
2018-06-02T04:54:35.341Z,19.82
2018-06-02T04:59:40.798Z,20.00
2018-06-02T05:04:49.673Z,20.25
2018-06-02T05:09:55.011Z,20.52
2018-06-02T05:15:03.674Z,20.65
2018-06-02T05:20:08.622Z,20.91
2018-06-02T05:25:14.784Z,20.90
2018-06-02T05:30:20.124Z,21.12
2018-06-02T05:35:26.484Z,21.02
2018-06-02T05:40:32.018Z,21.37
2018-06-02T05:45:40.359Z,21.44
2018-06-02T05:50:45.802Z,21.78
2018-06-02T05:55:54.415Z,21.50
2018-06-02T06:00:59.810Z,21.87
2018-06-02T06:06:12.767Z,22.46
2018-06-02T06:11:18.552Z,23.14
2018-06-02T06:16:23.873Z,23.99
2018-06-02T06:21:40.858Z,23.97
2018-06-02T06:26:46.239Z,24.58
2018-06-02T06:31:52.796Z,24.31
2018-06-02T06:36:58.346Z,24.21
2018-06-02T06:42:04.615Z,24.24
2018-06-02T06:47:10.583Z,24.21
2018-06-02T06:52:15.907Z,24.47
2018-06-02T06:57:21.355Z,24.50
2018-06-02T07:02:29.717Z,25.21
2018-06-02T07:07:36.718Z,25.57
2018-06-02T07:12:42.436Z,25.68
2018-06-02T07:17:48.626Z,25.14
2018-06-02T07:22:54.093Z,25.43
2018-06-02T07:27:59.478Z,25.47
2018-06-02T07:33:04.951Z,25.69
2018-06-02T07:38:10.345Z,25.96
2018-06-02T07:43:15.578Z,25.53
2018-06-02T07:48:21.054Z,25.39
2018-06-02T07:53:26.593Z,25.49
2018-06-02T07:58:31.822Z,25.85
2018-06-02T08:03:38.017Z,25.50
2018-06-02T08:08:43.317Z,25.49
2018-06-02T08:13:49.767Z,25.60
2018-06-02T08:18:55.202Z,25.26
2018-06-02T08:24:01.459Z,25.54
2018-06-02T08:29:06.868Z,25.48
2018-06-02T08:34:12.679Z,25.42
2018-06-02T08:39:19.019Z,25.61
2018-06-02T08:44:27.627Z,25.47
2018-06-02T08:49:33.062Z,25.47
2018-06-02T08:54:42.031Z,25.41
2018-06-02T08:59:47.349Z,25.24
2018-06-02T09:04:53.897Z,25.42
2018-06-02T09:09:59.327Z,25.54
2018-06-02T09:15:07.874Z,25.70
2018-06-02T09:20:13.296Z,25.69
2018-06-02T09:25:29.164Z,25.75
2018-06-02T09:30:35.137Z,25.84
2018-06-02T09:35:43.982Z,25.49
2018-06-02T09:40:53.281Z,25.72
2018-06-02T09:45:58.846Z,25.71
2018-06-02T09:51:07.450Z,25.79
2018-06-02T09:56:12.830Z,25.67
2018-06-02T10:01:18.504Z,25.99
2018-06-02T10:06:23.906Z,25.82
2018-06-02T10:11:34.693Z,25.86
2018-06-02T10:16:40.120Z,26.05
2018-06-02T10:21:55.629Z,25.93
2018-06-02T10:27:01.082Z,26.13
2018-06-02T10:32:09.415Z,26.41
2018-06-02T10:37:14.834Z,26.35
2018-06-02T10:42:20.483Z,26.35
2018-06-02T10:47:25.769Z,26.70
2018-06-02T10:52:30.936Z,26.95
2018-06-02T10:57:36.228Z,26.77
2018-06-02T11:02:41.781Z,27.03
2018-06-02T11:07:47.405Z,27.04
2018-06-02T11:12:52.406Z,27.08
2018-06-02T11:17:58.742Z,27.22
2018-06-02T11:23:03.987Z,27.54
2018-06-02T11:28:10.465Z,27.59
2018-06-02T11:33:20.056Z,27.51
2018-06-02T11:38:28.174Z,27.39
2018-06-02T11:43:37.198Z,27.79
2018-06-02T11:48:43.571Z,27.97
2018-06-02T11:53:48.810Z,27.58
2018-06-02T11:58:54.367Z,27.66
2018-06-02T12:03:59.984Z,26.72
2018-06-02T12:09:05.198Z,27.30
2018-06-02T12:14:11.603Z,27.42
2018-06-02T12:19:17.151Z,27.73
2018-06-02T12:24:23.459Z,28.51
2018-06-02T12:29:29.076Z,28.32
2018-06-02T12:34:38.042Z,28.99
2018-06-02T12:39:43.521Z,28.99
2018-06-02T12:44:53.010Z,28.96
2018-06-02T12:49:59.496Z,28.72
2018-06-02T12:55:09.412Z,29.10
2018-06-02T13:00:18.512Z,29.43
2018-06-02T13:05:24.044Z,29.57
2018-06-02T13:10:30.206Z,29.72
2018-06-02T13:15:36.268Z,30.19
2018-06-02T13:20:41.805Z,29.92
2018-06-02T13:25:47.147Z,29.83
2018-06-02T13:30:53.235Z,29.78
2018-06-02T13:35:59.211Z,30.09
2018-06-02T13:41:04.596Z,29.99
2018-06-02T13:46:11.060Z,30.43
2018-06-02T13:51:22.860Z,30.96
2018-06-02T13:56:28.379Z,30.32
2018-06-02T14:01:34.342Z,31.68
2018-06-02T14:06:40.279Z,31.77
2018-06-02T14:11:45.642Z,31.41
2018-06-02T14:16:55.135Z,31.91
2018-06-02T14:22:01.315Z,32.09
2018-06-02T14:27:07.554Z,31.60
2018-06-02T14:32:13.592Z,31.92
2018-06-02T14:37:19.668Z,32.07
2018-06-02T14:42:25.211Z,32.16
2018-06-02T14:47:38.791Z,33.29
2018-06-02T14:52:44.821Z,32.25
2018-06-02T14:57:50.831Z,33.24
2018-06-02T15:02:56.438Z,33.80
2018-06-02T15:08:03.826Z,34.15
2018-06-02T15:13:10.593Z,33.52
2018-06-02T15:18:19.998Z,33.71
2018-06-02T15:23:26.043Z,34.66
2018-06-02T15:28:32.089Z,34.55
2018-06-02T15:33:40.023Z,33.99
2018-06-02T15:38:54.491Z,33.45
2018-06-02T15:44:06.427Z,32.84
2018-06-02T15:49:15.027Z,33.06
2018-06-02T15:54:28.579Z,33.32
2018-06-02T15:59:38.737Z,32.29
2018-06-02T16:04:46.571Z,31.97
2018-06-02T16:09:57.080Z,31.26
2018-06-02T16:15:03.517Z,32.46
2018-06-02T16:20:15.994Z,32.87
2018-06-02T16:25:22.824Z,32.14
2018-06-02T16:30:29.695Z,31.19
2018-06-02T16:35:35.379Z,31.59
2018-06-02T16:40:41.459Z,31.30
2018-06-02T16:45:51.876Z,29.83
2018-06-02T16:50:58.864Z,29.46
2018-06-02T16:56:05.407Z,28.84
2018-06-02T17:01:11.046Z,28.08
2018-06-02T17:06:16.981Z,26.78
2018-06-02T17:11:23.510Z,25.26
2018-06-02T17:16:29.219Z,24.13
2018-06-02T17:21:36.411Z,23.84
2018-06-02T17:26:46.407Z,23.58
2018-06-02T17:31:51.933Z,23.37
2018-06-02T17:36:57.603Z,23.04
2018-06-02T17:42:03.197Z,22.96
2018-06-02T17:47:09.860Z,22.52
2018-06-02T17:52:15.340Z,22.42
2018-06-02T17:57:24.563Z,21.78
2018-06-02T18:02:30.101Z,20.40
2018-06-02T18:07:35.624Z,19.09
2018-06-02T18:12:41.221Z,18.66
2018-06-02T18:17:46.901Z,18.29
2018-06-02T18:22:52.486Z,18.24
2018-06-02T18:28:04.448Z,18.07
2018-06-02T18:33:09.875Z,17.63
2018-06-02T18:38:20.956Z,17.64
2018-06-02T18:43:26.596Z,17.69
2018-06-02T18:48:32.194Z,17.35
2018-06-02T18:53:37.760Z,17.24
2018-06-02T18:58:48.152Z,17.30
2018-06-02T19:03:53.653Z,17.16
2018-06-02T19:08:58.821Z,17.42
2018-06-02T19:14:04.330Z,17.02
2018-06-02T19:19:10.047Z,16.95
2018-06-02T19:24:15.656Z,16.67
2018-06-02T19:29:24.530Z,16.66
2018-06-02T19:34:29.864Z,16.54
2018-06-02T19:39:40.852Z,16.53
2018-06-02T19:44:46.397Z,16.39
2018-06-02T19:50:01.200Z,16.22
2018-06-02T19:55:06.668Z,16.21
2018-06-02T20:00:12.323Z,16.06
2018-06-02T20:05:17.634Z,15.97
2018-06-02T20:10:24.107Z,15.75
2018-06-02T20:15:35.687Z,15.66
2018-06-02T20:20:51.235Z,15.53
2018-06-02T20:26:01.934Z,15.45
2018-06-02T20:31:07.518Z,15.57
2018-06-02T20:36:13.169Z,15.49
2018-06-02T20:41:18.687Z,15.32
2018-06-02T20:46:29.866Z,15.25
2018-06-02T20:51:35.401Z,15.44
2018-06-02T20:56:44.901Z,15.47
2018-06-02T21:01:50.213Z,15.21
2018-06-02T21:06:55.818Z,15.11
2018-06-02T21:12:06.381Z,15.13
2018-06-02T21:17:16.858Z,15.01
2018-06-02T21:22:22.415Z,14.88
2018-06-02T21:27:34.037Z,14.92
2018-06-02T21:32:40.472Z,15.04
2018-06-02T21:37:46.857Z,14.76
2018-06-02T21:42:52.280Z,14.99
2018-06-02T21:48:02.718Z,15.01
2018-06-02T21:53:08.144Z,14.91
2018-06-02T21:58:13.622Z,14.80
2018-06-02T22:03:19.119Z,14.69
2018-06-02T22:08:38.632Z,14.83
2018-06-02T22:13:43.272Z,15.03
2018-06-02T22:18:54.088Z,14.90
2018-06-02T22:24:01.256Z,14.76
2018-06-02T22:29:06.914Z,14.78
2018-06-02T22:34:12.317Z,14.61
2018-06-02T22:39:22.941Z,14.55
2018-06-02T22:44:28.475Z,14.45
2018-06-02T22:49:39.775Z,14.34
2018-06-02T22:54:46.191Z,14.51
2018-06-02T22:59:52.847Z,14.44
2018-06-02T23:04:57.665Z,14.55
2018-06-02T23:10:02.845Z,14.14
2018-06-02T23:15:08.229Z,14.42
2018-06-02T23:20:13.503Z,14.42
2018-06-02T23:25:20.722Z,14.17
2018-06-02T23:30:27.028Z,13.92
2018-06-02T23:35:32.411Z,13.95
2018-06-02T23:40:37.775Z,14.05
2018-06-02T23:45:48.403Z,14.12
2018-06-02T23:50:54.476Z,14.06
2018-06-02T23:56:03.708Z,13.96
